sensor_id;sensor_type;location;lat;lon;timestamp;temperature;humidity
66722;SHT31;53633;49.932;10.884;2023-08-12T00:02:21;17.50;87.67
66722;SHT31;53633;49.932;10.884;2023-08-12T00:04:48;17.47;87.60
66722;SHT31;53633;49.932;10.884;2023-08-12T00:07:15;17.42;87.84
66722;SHT31;53633;49.932;10.884;2023-08-12T00:09:42;17.40;87.80
66722;SHT31;53633;49.932;10.884;2023-08-12T00:12:10;17.38;87.78
66722;SHT31;53633;49.932;10.884;2023-08-12T00:14:36;17.41;87.91
66722;SHT31;53633;49.932;10.884;2023-08-12T00:17:03;17.35;88.26
66722;SHT31;53633;49.932;10.884;2023-08-12T00:19:30;17.34;88.43
66722;SHT31;53633;49.932;10.884;2023-08-12T00:21:57;17.31;88.40
66722;SHT31;53633;49.932;10.884;2023-08-12T00:24:23;17.30;88.81
66722;SHT31;53633;49.932;10.884;2023-08-12T00:26:50;17.28;88.77
66722;SHT31;53633;49.932;10.884;2023-08-12T00:29:18;17.26;89.10
66722;SHT31;53633;49.932;10.884;2023-08-12T00:31:45;17.26;89.10
66722;SHT31;53633;49.932;10.884;2023-08-12T00:34:12;17.31;88.95
66722;SHT31;53633;49.932;10.884;2023-08-12T00:36:38;17.30;89.07
66722;SHT31;53633;49.932;10.884;2023-08-12T00:39:05;17.30;89.00
66722;SHT31;53633;49.932;10.884;2023-08-12T00:41:32;17.24;89.30
66722;SHT31;53633;49.932;10.884;2023-08-12T00:43:58;17.26;89.07
66722;SHT31;53633;49.932;10.884;2023-08-12T00:46:27;17.28;88.96
66722;SHT31;53633;49.932;10.884;2023-08-12T00:48:53;17.30;88.75
66722;SHT31;53633;49.932;10.884;2023-08-12T00:51:21;17.20;88.72
66722;SHT31;53633;49.932;10.884;2023-08-12T00:53:48;17.17;89.00
66722;SHT31;53633;49.932;10.884;2023-08-12T00:56:17;17.23;88.91
66722;SHT31;53633;49.932;10.884;2023-08-12T00:58:44;17.12;88.85
66722;SHT31;53633;49.932;10.884;2023-08-12T01:01:12;16.99;89.40
66722;SHT31;53633;49.932;10.884;2023-08-12T01:03:41;16.92;89.40
66722;SHT31;53633;49.932;10.884;2023-08-12T01:06:08;16.93;89.70
66722;SHT31;53633;49.932;10.884;2023-08-12T01:08:35;16.86;89.81
66722;SHT31;53633;49.932;10.884;2023-08-12T01:11:06;16.75;90.32
66722;SHT31;53633;49.932;10.884;2023-08-12T01:13:43;16.66;90.39
66722;SHT31;53633;49.932;10.884;2023-08-12T01:16:13;16.54;91.44
66722;SHT31;53633;49.932;10.884;2023-08-12T01:18:43;16.76;90.79
66722;SHT31;53633;49.932;10.884;2023-08-12T01:21:15;16.73;90.69
66722;SHT31;53633;49.932;10.884;2023-08-12T01:23:44;16.82;90.43
66722;SHT31;53633;49.932;10.884;2023-08-12T01:26:11;16.87;89.82
66722;SHT31;53633;49.932;10.884;2023-08-12T01:28:38;16.86;89.65
66722;SHT31;53633;49.932;10.884;2023-08-12T01:31:08;16.85;89.48
66722;SHT31;53633;49.932;10.884;2023-08-12T01:33:42;16.76;89.92
66722;SHT31;53633;49.932;10.884;2023-08-12T01:36:13;16.65;90.31
66722;SHT31;53633;49.932;10.884;2023-08-12T01:38:42;16.66;90.74
66722;SHT31;53633;49.932;10.884;2023-08-12T01:41:12;16.59;90.65
66722;SHT31;53633;49.932;10.884;2023-08-12T01:43:40;16.58;90.61
66722;SHT31;53633;49.932;10.884;2023-08-12T01:46:07;16.59;90.85
66722;SHT31;53633;49.932;10.884;2023-08-12T01:48:34;16.72;90.27
66722;SHT31;53633;49.932;10.884;2023-08-12T01:51:01;16.65;90.15
66722;SHT31;53633;49.932;10.884;2023-08-12T01:53:28;16.59;90.71
66722;SHT31;53633;49.932;10.884;2023-08-12T01:55:55;16.66;90.48
66722;SHT31;53633;49.932;10.884;2023-08-12T01:58:23;16.76;90.32
66722;SHT31;53633;49.932;10.884;2023-08-12T02:00:50;16.79;90.17
66722;SHT31;53633;49.932;10.884;2023-08-12T02:03:16;16.75;90.63
66722;SHT31;53633;49.932;10.884;2023-08-12T02:05:43;16.65;91.31
66722;SHT31;53633;49.932;10.884;2023-08-12T02:08:10;16.61;91.66
66722;SHT31;53633;49.932;10.884;2023-08-12T02:10:37;16.66;91.37
66722;SHT31;53633;49.932;10.884;2023-08-12T02:13:04;16.73;90.65
66722;SHT31;53633;49.932;10.884;2023-08-12T02:15:32;16.72;90.37
66722;SHT31;53633;49.932;10.884;2023-08-12T02:17:59;16.75;90.30
66722;SHT31;53633;49.932;10.884;2023-08-12T02:20:25;16.69;90.32
66722;SHT31;53633;49.932;10.884;2023-08-12T02:22:52;16.73;90.57
66722;SHT31;53633;49.932;10.884;2023-08-12T02:25:19;16.64;91.00
66722;SHT31;53633;49.932;10.884;2023-08-12T02:27:46;16.55;91.31
66722;SHT31;53633;49.932;10.884;2023-08-12T02:30:12;16.65;91.33
66722;SHT31;53633;49.932;10.884;2023-08-12T02:32:40;16.64;91.09
66722;SHT31;53633;49.932;10.884;2023-08-12T02:35:08;16.65;91.14
66722;SHT31;53633;49.932;10.884;2023-08-12T02:37:35;16.61;91.08
66722;SHT31;53633;49.932;10.884;2023-08-12T02:40:01;16.59;90.95
66722;SHT31;53633;49.932;10.884;2023-08-12T02:42:28;16.45;91.25
66722;SHT31;53633;49.932;10.884;2023-08-12T02:44:55;16.40;92.10
66722;SHT31;53633;49.932;10.884;2023-08-12T02:47:22;16.40;92.01
66722;SHT31;53633;49.932;10.884;2023-08-12T02:49:50;16.47;91.71
66722;SHT31;53633;49.932;10.884;2023-08-12T02:52:16;16.54;91.53
66722;SHT31;53633;49.932;10.884;2023-08-12T02:54:43;16.49;91.31
66722;SHT31;53633;49.932;10.884;2023-08-12T02:57:10;16.57;91.16
66722;SHT31;53633;49.932;10.884;2023-08-12T02:59:37;16.55;91.02
66722;SHT31;53633;49.932;10.884;2023-08-12T03:02:04;16.51;91.10
66722;SHT31;53633;49.932;10.884;2023-08-12T03:04:31;16.48;91.31
66722;SHT31;53633;49.932;10.884;2023-08-12T03:06:59;16.38;91.95
66722;SHT31;53633;49.932;10.884;2023-08-12T03:09:25;16.41;91.88
66722;SHT31;53633;49.932;10.884;2023-08-12T03:11:52;16.38;92.10
66722;SHT31;53633;49.932;10.884;2023-08-12T03:14:19;16.32;92.39
66722;SHT31;53633;49.932;10.884;2023-08-12T03:16:46;16.27;92.32
66722;SHT31;53633;49.932;10.884;2023-08-12T03:19:12;16.35;92.39
66722;SHT31;53633;49.932;10.884;2023-08-12T03:21:39;16.44;92.13
66722;SHT31;53633;49.932;10.884;2023-08-12T03:24:07;16.38;91.98
66722;SHT31;53633;49.932;10.884;2023-08-12T03:26:34;16.31;91.90
66722;SHT31;53633;49.932;10.884;2023-08-12T03:29:00;16.27;91.90
66722;SHT31;53633;49.932;10.884;2023-08-12T03:31:27;16.25;91.76
66722;SHT31;53633;49.932;10.884;2023-08-12T03:33:54;16.30;91.81
66722;SHT31;53633;49.932;10.884;2023-08-12T03:36:21;16.22;91.81
66722;SHT31;53633;49.932;10.884;2023-08-12T03:38:48;16.30;91.77
66722;SHT31;53633;49.932;10.884;2023-08-12T03:41:16;16.27;91.76
66722;SHT31;53633;49.932;10.884;2023-08-12T03:43:42;16.40;91.51
66722;SHT31;53633;49.932;10.884;2023-08-12T03:46:09;16.38;91.56
66722;SHT31;53633;49.932;10.884;2023-08-12T03:48:36;16.38;91.41
66722;SHT31;53633;49.932;10.884;2023-08-12T03:51:03;16.41;91.52
66722;SHT31;53633;49.932;10.884;2023-08-12T03:53:29;16.42;91.48
66722;SHT31;53633;49.932;10.884;2023-08-12T03:55:56;16.59;90.88
66722;SHT31;53633;49.932;10.884;2023-08-12T03:58:24;16.49;91.21
66722;SHT31;53633;49.932;10.884;2023-08-12T04:00:51;16.45;91.39
66722;SHT31;53633;49.932;10.884;2023-08-12T04:03:17;16.51;91.40
66722;SHT31;53633;49.932;10.884;2023-08-12T04:05:48;16.47;91.49
66722;SHT31;53633;49.932;10.884;2023-08-12T04:08:15;16.55;91.35
66722;SHT31;53633;49.932;10.884;2023-08-12T04:10:44;16.55;91.07
66722;SHT31;53633;49.932;10.884;2023-08-12T04:13:11;16.59;90.91
66722;SHT31;53633;49.932;10.884;2023-08-12T04:15:39;16.64;90.52
66722;SHT31;53633;49.932;10.884;2023-08-12T04:18:06;16.57;90.60
66722;SHT31;53633;49.932;10.884;2023-08-12T04:20:33;16.66;90.10
66722;SHT31;53633;49.932;10.884;2023-08-12T04:23:00;16.68;90.19
66722;SHT31;53633;49.932;10.884;2023-08-12T04:25:26;16.69;90.08
66722;SHT31;53633;49.932;10.884;2023-08-12T04:27:53;16.73;90.22
66722;SHT31;53633;49.932;10.884;2023-08-12T04:30:21;16.85;89.95
66722;SHT31;53633;49.932;10.884;2023-08-12T04:32:49;17.00;89.41
66722;SHT31;53633;49.932;10.884;2023-08-12T04:35:16;17.10;89.00
66722;SHT31;53633;49.932;10.884;2023-08-12T04:37:42;17.07;89.32
66722;SHT31;53633;49.932;10.884;2023-08-12T04:40:10;17.20;88.80
66722;SHT31;53633;49.932;10.884;2023-08-12T04:42:36;17.30;88.22
66722;SHT31;53633;49.932;10.884;2023-08-12T04:45:04;17.31;88.18
66722;SHT31;53633;49.932;10.884;2023-08-12T04:47:30;17.42;88.22
66722;SHT31;53633;49.932;10.884;2023-08-12T04:49:59;17.42;87.96
66722;SHT31;53633;49.932;10.884;2023-08-12T04:52:25;17.37;88.41
66722;SHT31;53633;49.932;10.884;2023-08-12T04:54:53;17.37;88.52
66722;SHT31;53633;49.932;10.884;2023-08-12T04:57:19;17.38;88.79
66722;SHT31;53633;49.932;10.884;2023-08-12T04:59:46;17.55;88.69
66722;SHT31;53633;49.932;10.884;2023-08-12T05:02:13;17.67;88.39
66722;SHT31;53633;49.932;10.884;2023-08-12T05:04:39;17.90;87.72
66722;SHT31;53633;49.932;10.884;2023-08-12T05:07:08;18.30;86.68
66722;SHT31;53633;49.932;10.884;2023-08-12T05:09:35;18.67;85.49
66722;SHT31;53633;49.932;10.884;2023-08-12T05:12:01;18.88;84.73
66722;SHT31;53633;49.932;10.884;2023-08-12T05:14:28;18.92;84.65
66722;SHT31;53633;49.932;10.884;2023-08-12T05:16:55;18.92;84.31
66722;SHT31;53633;49.932;10.884;2023-08-12T05:19:22;19.09;83.70
66722;SHT31;53633;49.932;10.884;2023-08-12T05:21:49;19.15;83.67
66722;SHT31;53633;49.932;10.884;2023-08-12T05:24:17;19.05;84.62
66722;SHT31;53633;49.932;10.884;2023-08-12T05:26:44;19.08;84.67
66722;SHT31;53633;49.932;10.884;2023-08-12T05:29:11;19.06;84.61
66722;SHT31;53633;49.932;10.884;2023-08-12T05:31:38;19.15;84.37
66722;SHT31;53633;49.932;10.884;2023-08-12T05:34:05;19.19;84.44
66722;SHT31;53633;49.932;10.884;2023-08-12T05:36:31;19.15;85.06
66722;SHT31;53633;49.932;10.884;2023-08-12T05:38:58;19.16;84.73
66722;SHT31;53633;49.932;10.884;2023-08-12T05:41:26;19.15;85.24
66722;SHT31;53633;49.932;10.884;2023-08-12T05:43:53;19.13;85.50
66722;SHT31;53633;49.932;10.884;2023-08-12T05:46:20;19.15;85.18
66722;SHT31;53633;49.932;10.884;2023-08-12T05:48:47;19.08;85.94
66722;SHT31;53633;49.932;10.884;2023-08-12T05:51:14;19.09;85.46
66722;SHT31;53633;49.932;10.884;2023-08-12T05:53:41;19.08;85.68
66722;SHT31;53633;49.932;10.884;2023-08-12T05:56:07;18.92;86.66
66722;SHT31;53633;49.932;10.884;2023-08-12T05:58:35;18.92;86.63
66722;SHT31;53633;49.932;10.884;2023-08-12T06:01:02;19.06;86.14
66722;SHT31;53633;49.932;10.884;2023-08-12T06:03:29;18.91;87.15
66722;SHT31;53633;49.932;10.884;2023-08-12T06:05:56;19.02;86.95
66722;SHT31;53633;49.932;10.884;2023-08-12T06:08:22;19.16;86.52
66722;SHT31;53633;49.932;10.884;2023-08-12T06:10:49;19.26;86.49
66722;SHT31;53633;49.932;10.884;2023-08-12T06:13:16;19.46;85.72
66722;SHT31;53633;49.932;10.884;2023-08-12T06:15:44;19.47;85.89
66722;SHT31;53633;49.932;10.884;2023-08-12T06:18:11;19.60;85.81
66722;SHT31;53633;49.932;10.884;2023-08-12T06:20:38;19.74;85.58
66722;SHT31;53633;49.932;10.884;2023-08-12T06:23:04;19.82;84.76
66722;SHT31;53633;49.932;10.884;2023-08-12T06:25:31;19.88;84.90
66722;SHT31;53633;49.932;10.884;2023-08-12T06:27:58;19.95;84.48
66722;SHT31;53633;49.932;10.884;2023-08-12T06:30:38;20.06;84.06
66722;SHT31;53633;49.932;10.884;2023-08-12T06:33:06;20.12;84.04
66722;SHT31;53633;49.932;10.884;2023-08-12T06:35:33;20.11;84.22
66722;SHT31;53633;49.932;10.884;2023-08-12T06:38:00;20.28;83.80
66722;SHT31;53633;49.932;10.884;2023-08-12T06:40:27;20.47;83.38
66722;SHT31;53633;49.932;10.884;2023-08-12T06:42:53;20.54;83.32
66722;SHT31;53633;49.932;10.884;2023-08-12T06:45:20;20.67;82.56
66722;SHT31;53633;49.932;10.884;2023-08-12T06:47:47;20.50;82.75
66722;SHT31;53633;49.932;10.884;2023-08-12T06:50:15;20.66;82.57
66722;SHT31;53633;49.932;10.884;2023-08-12T06:52:42;20.56;83.47
66722;SHT31;53633;49.932;10.884;2023-08-12T06:55:09;20.73;83.09
66722;SHT31;53633;49.932;10.884;2023-08-12T06:57:35;20.67;83.25
66722;SHT31;53633;49.932;10.884;2023-08-12T07:00:02;20.66;83.00
66722;SHT31;53633;49.932;10.884;2023-08-12T07:02:29;20.49;84.01
66722;SHT31;53633;49.932;10.884;2023-08-12T07:04:56;20.49;83.72
66722;SHT31;53633;49.932;10.884;2023-08-12T07:07:24;20.37;84.25
66722;SHT31;53633;49.932;10.884;2023-08-12T07:09:51;20.43;84.21
66722;SHT31;53633;49.932;10.884;2023-08-12T07:12:18;20.26;84.58
66722;SHT31;53633;49.932;10.884;2023-08-12T07:14:44;20.26;84.99
66722;SHT31;53633;49.932;10.884;2023-08-12T07:17:11;20.36;84.50
66722;SHT31;53633;49.932;10.884;2023-08-12T07:19:38;20.57;83.57
66722;SHT31;53633;49.932;10.884;2023-08-12T07:22:04;20.78;82.89
66722;SHT31;53633;49.932;10.884;2023-08-12T07:24:33;21.02;82.42
66722;SHT31;53633;49.932;10.884;2023-08-12T07:27:00;21.35;81.78
66722;SHT31;53633;49.932;10.884;2023-08-12T07:29:26;21.63;80.84
66722;SHT31;53633;49.932;10.884;2023-08-12T07:31:53;21.97;79.76
66722;SHT31;53633;49.932;10.884;2023-08-12T07:34:20;22.07;78.93
66722;SHT31;53633;49.932;10.884;2023-08-12T07:36:47;22.25;78.85
66722;SHT31;53633;49.932;10.884;2023-08-12T07:39:13;22.46;77.91
66722;SHT31;53633;49.932;10.884;2023-08-12T07:41:41;22.57;76.84
66722;SHT31;53633;49.932;10.884;2023-08-12T07:44:08;22.63;75.90
66722;SHT31;53633;49.932;10.884;2023-08-12T07:46:35;22.57;75.74
66722;SHT31;53633;49.932;10.884;2023-08-12T07:49:02;22.65;75.95
66722;SHT31;53633;49.932;10.884;2023-08-12T07:51:29;22.66;76.44
66722;SHT31;53633;49.932;10.884;2023-08-12T07:53:56;22.62;77.46
66722;SHT31;53633;49.932;10.884;2023-08-12T07:56:22;22.87;75.42
66722;SHT31;53633;49.932;10.884;2023-08-12T07:58:51;22.96;75.03
66722;SHT31;53633;49.932;10.884;2023-08-12T08:01:17;23.07;74.81
66722;SHT31;53633;49.932;10.884;2023-08-12T08:03:44;23.28;73.53
66722;SHT31;53633;49.932;10.884;2023-08-12T08:06:11;23.35;73.60
66722;SHT31;53633;49.932;10.884;2023-08-12T08:08:37;23.37;73.11
66722;SHT31;53633;49.932;10.884;2023-08-12T08:11:04;23.27;73.19
66722;SHT31;53633;49.932;10.884;2023-08-12T08:13:31;23.40;73.28
66722;SHT31;53633;49.932;10.884;2023-08-12T08:15:59;23.41;72.79
66722;SHT31;53633;49.932;10.884;2023-08-12T08:18:26;23.30;71.93
66722;SHT31;53633;49.932;10.884;2023-08-12T08:20:52;23.37;73.23
66722;SHT31;53633;49.932;10.884;2023-08-12T08:23:19;23.15;73.93
66722;SHT31;53633;49.932;10.884;2023-08-12T08:25:46;23.02;72.73
66722;SHT31;53633;49.932;10.884;2023-08-12T08:28:12;23.06;70.30
66722;SHT31;53633;49.932;10.884;2023-08-12T08:30:39;23.14;69.80
66722;SHT31;53633;49.932;10.884;2023-08-12T08:33:08;23.06;68.20
66722;SHT31;53633;49.932;10.884;2023-08-12T08:35:35;23.06;68.22
66722;SHT31;53633;49.932;10.884;2023-08-12T08:38:02;23.18;67.88
66722;SHT31;53633;49.932;10.884;2023-08-12T08:40:29;23.31;66.88
66722;SHT31;53633;49.932;10.884;2023-08-12T08:42:59;23.42;66.72
66722;SHT31;53633;49.932;10.884;2023-08-12T08:45:30;23.57;67.51
66722;SHT31;53633;49.932;10.884;2023-08-12T08:47:59;23.72;66.45
66722;SHT31;53633;49.932;10.884;2023-08-12T08:50:29;24.00;66.34
66722;SHT31;53633;49.932;10.884;2023-08-12T08:52:57;24.64;63.50
66722;SHT31;53633;49.932;10.884;2023-08-12T08:55:24;24.85;63.74
66722;SHT31;53633;49.932;10.884;2023-08-12T08:57:51;24.83;63.41
66722;SHT31;53633;49.932;10.884;2023-08-12T09:00:19;24.62;63.93
66722;SHT31;53633;49.932;10.884;2023-08-12T09:02:46;24.67;64.02
66722;SHT31;53633;49.932;10.884;2023-08-12T09:05:16;24.64;64.57
66722;SHT31;53633;49.932;10.884;2023-08-12T09:07:45;24.67;63.85
66722;SHT31;53633;49.932;10.884;2023-08-12T09:10:13;25.23;62.54
66722;SHT31;53633;49.932;10.884;2023-08-12T09:12:42;26.26;61.08
66722;SHT31;53633;49.932;10.884;2023-08-12T09:15:09;27.14;58.91
66722;SHT31;53633;49.932;10.884;2023-08-12T09:17:36;27.64;57.52
66722;SHT31;53633;49.932;10.884;2023-08-12T09:20:05;27.87;55.72
66722;SHT31;53633;49.932;10.884;2023-08-12T09:22:31;27.94;54.77
66722;SHT31;53633;49.932;10.884;2023-08-12T09:25:00;28.09;55.15
66722;SHT31;53633;49.932;10.884;2023-08-12T09:27:30;28.05;55.27
66722;SHT31;53633;49.932;10.884;2023-08-12T09:29:57;27.91;55.47
66722;SHT31;53633;49.932;10.884;2023-08-12T09:32:24;27.50;56.21
66722;SHT31;53633;49.932;10.884;2023-08-12T09:34:52;27.08;57.19
66722;SHT31;53633;49.932;10.884;2023-08-12T09:37:20;27.22;57.62
66722;SHT31;53633;49.932;10.884;2023-08-12T09:39:48;27.46;56.77
66722;SHT31;53633;49.932;10.884;2023-08-12T09:42:17;27.90;55.82
66722;SHT31;53633;49.932;10.884;2023-08-12T09:44:44;28.36;55.54
66722;SHT31;53633;49.932;10.884;2023-08-12T09:47:11;28.73;54.54
66722;SHT31;53633;49.932;10.884;2023-08-12T09:49:38;28.57;54.65
66722;SHT31;53633;49.932;10.884;2023-08-12T09:52:07;28.69;55.22
66722;SHT31;53633;49.932;10.884;2023-08-12T09:54:34;28.89;54.15
66722;SHT31;53633;49.932;10.884;2023-08-12T09:57:02;28.89;54.00
66722;SHT31;53633;49.932;10.884;2023-08-12T09:59:32;29.45;52.93
66722;SHT31;53633;49.932;10.884;2023-08-12T10:01:59;29.72;52.30
66722;SHT31;53633;49.932;10.884;2023-08-12T10:04:29;29.34;52.54
66722;SHT31;53633;49.932;10.884;2023-08-12T10:07:00;29.75;52.17
66722;SHT31;53633;49.932;10.884;2023-08-12T10:09:28;30.25;51.74
66722;SHT31;53633;49.932;10.884;2023-08-12T10:11:54;30.96;49.56
66722;SHT31;53633;49.932;10.884;2023-08-12T10:14:22;31.29;49.68
66722;SHT31;53633;49.932;10.884;2023-08-12T10:16:52;31.61;48.05
66722;SHT31;53633;49.932;10.884;2023-08-12T10:19:30;30.75;50.14
66722;SHT31;53633;49.932;10.884;2023-08-12T10:21:59;31.09;50.10
66722;SHT31;53633;49.932;10.884;2023-08-12T10:24:26;31.61;49.47
66722;SHT31;53633;49.932;10.884;2023-08-12T10:26:53;30.79;50.52
66722;SHT31;53633;49.932;10.884;2023-08-12T10:29:22;30.32;51.80
66722;SHT31;53633;49.932;10.884;2023-08-12T10:31:51;30.65;50.80
66722;SHT31;53633;49.932;10.884;2023-08-12T10:34:19;30.68;50.56
66722;SHT31;53633;49.932;10.884;2023-08-12T10:36:46;30.37;52.24
66722;SHT31;53633;49.932;10.884;2023-08-12T10:39:27;30.04;51.92
66722;SHT31;53633;49.932;10.884;2023-08-12T10:41:55;30.17;51.96
66722;SHT31;53633;49.932;10.884;2023-08-12T10:44:26;29.58;53.54
66722;SHT31;53633;49.932;10.884;2023-08-12T10:46:54;29.49;53.47
66722;SHT31;53633;49.932;10.884;2023-08-12T10:49:21;29.48;54.39
66722;SHT31;53633;49.932;10.884;2023-08-12T10:51:50;29.17;54.76
66722;SHT31;53633;49.932;10.884;2023-08-12T10:54:20;29.27;54.91
66722;SHT31;53633;49.932;10.884;2023-08-12T10:57:06;29.06;53.82
66722;SHT31;53633;49.932;10.884;2023-08-12T10:59:51;29.01;55.98
66722;SHT31;53633;49.932;10.884;2023-08-12T11:02:21;29.07;55.23
66722;SHT31;53633;49.932;10.884;2023-08-12T11:04:49;29.18;55.69
66722;SHT31;53633;49.932;10.884;2023-08-12T11:07:17;29.01;55.52
66722;SHT31;53633;49.932;10.884;2023-08-12T11:09:45;28.80;56.39
66722;SHT31;53633;49.932;10.884;2023-08-12T11:12:17;28.99;55.94
66722;SHT31;53633;49.932;10.884;2023-08-12T11:14:48;29.10;56.01
66722;SHT31;53633;49.932;10.884;2023-08-12T11:17:15;29.12;55.91
66722;SHT31;53633;49.932;10.884;2023-08-12T11:19:43;29.47;55.72
66722;SHT31;53633;49.932;10.884;2023-08-12T11:22:11;29.24;56.14
66722;SHT31;53633;49.932;10.884;2023-08-12T11:24:40;29.28;56.77
66722;SHT31;53633;49.932;10.884;2023-08-12T11:27:09;29.34;60.71
66722;SHT31;53633;49.932;10.884;2023-08-12T11:29:37;29.14;60.07
66722;SHT31;53633;49.932;10.884;2023-08-12T11:32:05;29.11;61.46
66722;SHT31;53633;49.932;10.884;2023-08-12T11:34:32;29.01;60.84
66722;SHT31;53633;49.932;10.884;2023-08-12T11:37:02;28.84;59.96
66722;SHT31;53633;49.932;10.884;2023-08-12T11:39:32;28.79;59.06
66722;SHT31;53633;49.932;10.884;2023-08-12T11:41:59;28.64;59.61
66722;SHT31;53633;49.932;10.884;2023-08-12T11:44:25;28.72;59.47
66722;SHT31;53633;49.932;10.884;2023-08-12T11:46:52;28.77;59.19
66722;SHT31;53633;49.932;10.884;2023-08-12T11:49:19;28.90;57.79
66722;SHT31;53633;49.932;10.884;2023-08-12T11:51:47;28.96;58.06
66722;SHT31;53633;49.932;10.884;2023-08-12T11:54:15;28.90;56.00
66722;SHT31;53633;49.932;10.884;2023-08-12T11:56:43;29.00;57.06
66722;SHT31;53633;49.932;10.884;2023-08-12T11:59:09;28.96;56.76
66722;SHT31;53633;49.932;10.884;2023-08-12T12:01:36;28.89;57.23
66722;SHT31;53633;49.932;10.884;2023-08-12T12:04:03;28.91;56.82
66722;SHT31;53633;49.932;10.884;2023-08-12T12:06:31;28.90;56.91
66722;SHT31;53633;49.932;10.884;2023-08-12T12:09:02;28.91;57.21
66722;SHT31;53633;49.932;10.884;2023-08-12T12:11:31;28.93;56.62
66722;SHT31;53633;49.932;10.884;2023-08-12T12:14:01;28.94;56.70
66722;SHT31;53633;49.932;10.884;2023-08-12T12:16:37;29.03;56.58
66722;SHT31;53633;49.932;10.884;2023-08-12T12:19:04;29.24;56.09
66722;SHT31;53633;49.932;10.884;2023-08-12T12:21:37;29.37;55.63
66722;SHT31;53633;49.932;10.884;2023-08-12T12:24:04;29.37;54.97
66722;SHT31;53633;49.932;10.884;2023-08-12T12:26:34;29.28;54.44
66722;SHT31;53633;49.932;10.884;2023-08-12T12:29:01;29.52;53.76
66722;SHT31;53633;49.932;10.884;2023-08-12T12:31:28;29.47;55.91
66722;SHT31;53633;49.932;10.884;2023-08-12T12:33:54;29.61;54.53
66722;SHT31;53633;49.932;10.884;2023-08-12T12:36:21;29.85;55.21
66722;SHT31;53633;49.932;10.884;2023-08-12T12:38:48;30.06;55.14
66722;SHT31;53633;49.932;10.884;2023-08-12T12:41:14;30.31;53.90
66722;SHT31;53633;49.932;10.884;2023-08-12T12:43:43;30.35;53.68
66722;SHT31;53633;49.932;10.884;2023-08-12T12:46:09;30.35;52.43
66722;SHT31;53633;49.932;10.884;2023-08-12T12:48:36;30.37;53.59
66722;SHT31;53633;49.932;10.884;2023-08-12T12:51:04;30.65;53.41
66722;SHT31;53633;49.932;10.884;2023-08-12T12:53:30;30.78;54.83
66722;SHT31;53633;49.932;10.884;2023-08-12T12:55:57;30.96;53.16
66722;SHT31;53633;49.932;10.884;2023-08-12T12:58:24;30.78;53.04
66722;SHT31;53633;49.932;10.884;2023-08-12T13:00:52;30.38;54.06
66722;SHT31;53633;49.932;10.884;2023-08-12T13:03:19;30.45;54.79
66722;SHT31;53633;49.932;10.884;2023-08-12T13:05:46;30.32;55.89
66722;SHT31;53633;49.932;10.884;2023-08-12T13:08:27;29.94;55.93
66722;SHT31;53633;49.932;10.884;2023-08-12T13:10:54;29.80;55.94
66722;SHT31;53633;49.932;10.884;2023-08-12T13:13:21;29.62;55.75
66722;SHT31;53633;49.932;10.884;2023-08-12T13:15:48;29.55;56.08
66722;SHT31;53633;49.932;10.884;2023-08-12T13:18:16;29.49;57.23
66722;SHT31;53633;49.932;10.884;2023-08-12T13:20:42;29.35;56.87
66722;SHT31;53633;49.932;10.884;2023-08-12T13:23:09;29.32;57.80
66722;SHT31;53633;49.932;10.884;2023-08-12T13:25:36;28.19;58.70
66722;SHT31;53633;49.932;10.884;2023-08-12T13:28:04;27.11;61.24
66722;SHT31;53633;49.932;10.884;2023-08-12T13:30:30;26.47;62.66
66722;SHT31;53633;49.932;10.884;2023-08-12T13:32:57;25.77;64.00
66722;SHT31;53633;49.932;10.884;2023-08-12T13:35:28;25.27;64.93
66722;SHT31;53633;49.932;10.884;2023-08-12T13:37:55;25.10;65.63
66722;SHT31;53633;49.932;10.884;2023-08-12T13:40:22;24.67;65.73
66722;SHT31;53633;49.932;10.884;2023-08-12T13:42:49;24.44;66.64
66722;SHT31;53633;49.932;10.884;2023-08-12T13:45:15;24.13;68.02
66722;SHT31;53633;49.932;10.884;2023-08-12T13:47:42;23.95;69.09
66722;SHT31;53633;49.932;10.884;2023-08-12T13:50:09;23.82;69.55
66722;SHT31;53633;49.932;10.884;2023-08-12T13:52:37;23.73;72.46
66722;SHT31;53633;49.932;10.884;2023-08-12T13:55:05;23.32;77.62
66722;SHT31;53633;49.932;10.884;2023-08-12T13:57:32;22.46;81.27
66722;SHT31;53633;49.932;10.884;2023-08-12T13:59:59;22.25;82.38
66722;SHT31;53633;49.932;10.884;2023-08-12T14:02:25;21.79;84.07
66722;SHT31;53633;49.932;10.884;2023-08-12T14:04:52;21.35;85.59
66722;SHT31;53633;49.932;10.884;2023-08-12T14:07:19;21.22;86.06
66722;SHT31;53633;49.932;10.884;2023-08-12T14:09:47;21.04;86.96
66722;SHT31;53633;49.932;10.884;2023-08-12T14:12:14;20.91;88.45
66722;SHT31;53633;49.932;10.884;2023-08-12T14:14:41;20.70;89.08
66722;SHT31;53633;49.932;10.884;2023-08-12T14:17:08;20.76;88.32
66722;SHT31;53633;49.932;10.884;2023-08-12T14:19:35;20.67;88.28
66722;SHT31;53633;49.932;10.884;2023-08-12T14:22:01;20.39;90.66
66722;SHT31;53633;49.932;10.884;2023-08-12T14:24:28;20.61;88.80
66722;SHT31;53633;49.932;10.884;2023-08-12T14:26:56;20.73;90.94
66722;SHT31;53633;49.932;10.884;2023-08-12T14:29:23;21.07;89.28
66722;SHT31;53633;49.932;10.884;2023-08-12T14:31:51;21.24;89.16
66722;SHT31;53633;49.932;10.884;2023-08-12T14:34:17;21.50;89.35
66722;SHT31;53633;49.932;10.884;2023-08-12T14:36:44;21.89;85.64
66722;SHT31;53633;49.932;10.884;2023-08-12T14:39:11;22.18;84.58
66722;SHT31;53633;49.932;10.884;2023-08-12T14:41:37;22.27;83.50
66722;SHT31;53633;49.932;10.884;2023-08-12T14:44:06;22.08;84.62
66722;SHT31;53633;49.932;10.884;2023-08-12T14:46:32;22.12;85.16
66722;SHT31;53633;49.932;10.884;2023-08-12T14:48:59;22.38;83.61
66722;SHT31;53633;49.932;10.884;2023-08-12T14:51:26;22.45;84.05
66722;SHT31;53633;49.932;10.884;2023-08-12T14:53:53;22.45;83.12
66722;SHT31;53633;49.932;10.884;2023-08-12T14:56:20;22.18;83.19
66722;SHT31;53633;49.932;10.884;2023-08-12T14:58:46;22.27;82.91
66722;SHT31;53633;49.932;10.884;2023-08-12T15:01:14;22.41;83.11
66722;SHT31;53633;49.932;10.884;2023-08-12T15:03:41;22.72;80.72
66722;SHT31;53633;49.932;10.884;2023-08-12T15:06:08;22.77;81.74
66722;SHT31;53633;49.932;10.884;2023-08-12T15:08:35;22.96;83.35
66722;SHT31;53633;49.932;10.884;2023-08-12T15:11:02;23.03;82.57
66722;SHT31;53633;49.932;10.884;2023-08-12T15:13:28;23.04;81.78
66722;SHT31;53633;49.932;10.884;2023-08-12T15:15:55;22.83;81.87
66722;SHT31;53633;49.932;10.884;2023-08-12T15:18:23;22.87;81.93